This is the latest recevied weather packets stored in our database for station/object W6DSP. If no packets are shown the sender has not sent any weather packets the latest 10 day(s).
| Time | Temp. | Humidity | Pressure | Rain* | Wind** | Luminosity | Snow |
|---|---|---|---|---|---|---|---|
| 1777790853 | 2.78° C | 83% | 1018.1 hPa | 0 mm | - | - | - |
| 1777790139 | 2.22° C | 85% | 1018.3 hPa | 0 mm | - | - | - |
| 1777789400 | 2.22° C | 86% | 1018.4 hPa | 0 mm | - | - | - |
| 1777788694 | 2.22° C | 86% | 1018.5 hPa | 0 mm | - | - | - |
| 1777787968 | 1.67° C | 87% | 1018.5 hPa | 0 mm | - | - | - |
| 1777787279 | 1.67° C | 86% | 1018.7 hPa | 0 mm | - | - | - |
| 1777786580 | 1.67° C | 86% | 1018.8 hPa | 0 mm | - | - | - |
| 1777785829 | 1.67° C | 85% | 1018.8 hPa | 0 mm | - | - | - |
| 1777785089 | 1.67° C | 85% | 1018.8 hPa | 0 mm | - | - | - |
| 1777784377 | 2.22° C | 85% | 1018.9 hPa | 0 mm | - | - | - |
| 1777783660 | 1.67° C | 84% | 1019 hPa | 0 mm | - | - | - |
| 1777782911 | 1.67° C | 84% | 1018.9 hPa | 0 mm | - | - | - |
| 1777782157 | 1.67° C | 83% | 1019 hPa | 0 mm | - | - | - |
| 1777781433 | 1.67° C | 83% | 1018.9 hPa | 0 mm | - | - | - |
| 1777780679 | 2.22° C | 82% | 1019.1 hPa | 0 mm | - | - | - |
| 1777779964 | 2.22° C | 82% | 1019 hPa | 0 mm | - | - | - |
| 1777779264 | 2.78° C | 80% | 1019 hPa | 0 mm | - | - | - |
| 1777778546 | 2.78° C | 81% | 1019.1 hPa | 0 mm | - | - | - |
| 1777777794 | 2.78° C | 79% | 1019.2 hPa | 0 mm | - | - | - |
| 1777777069 | 2.78° C | 79% | 1019.1 hPa | 0 mm | - | - | - |
| 1777776317 | 3.33° C | 76% | 1019.1 hPa | 0 mm | - | - | - |
| 1777775576 | 3.33° C | 76% | 1019 hPa | 0 mm | - | - | - |
| 1777774837 | 3.33° C | 75% | 1019 hPa | 0 mm | - | - | - |
| 1777774126 | 3.89° C | 71% | 1019 hPa | 0 mm | - | - | - |
| 1777773386 | 4.44° C | 72% | 1019 hPa | 0 mm | - | - | - |
* Rain latest hour (hover to see other rain measurements)
** Current wind speed in m/s (hover to see current wind gust speed)